createdAt,value
2018-12-20T00:11:24.980Z,2.9
2018-12-20T00:26:36.623Z,2.9
2018-12-20T00:41:48.017Z,2.9
2018-12-20T00:56:59.760Z,2.9
2018-12-20T01:12:11.268Z,2.9
2018-12-20T01:27:22.813Z,2.9
2018-12-20T01:42:30.174Z,2.9
2018-12-20T01:57:46.133Z,2.9
2018-12-20T02:12:57.908Z,2.8
2018-12-20T02:28:09.282Z,2.7
2018-12-20T02:43:20.753Z,2.7
2018-12-20T02:58:32.922Z,2.7
2018-12-20T03:13:44.002Z,2.6
2018-12-20T03:28:55.427Z,2.6
2018-12-20T03:44:06.879Z,2.6
2018-12-20T03:59:16.631Z,2.6
2018-12-20T04:14:30.233Z,2.6
2018-12-20T04:29:41.976Z,2.5
2018-12-20T04:44:53.031Z,2.5
2018-12-20T04:59:56.346Z,2.4
2018-12-20T05:15:15.956Z,2.4
2018-12-20T05:30:27.240Z,2.3
2018-12-20T05:45:38.813Z,2.2
2018-12-20T06:00:50.292Z,2.2
2018-12-20T06:16:01.266Z,2.2
2018-12-20T06:31:12.635Z,2.3
2018-12-20T06:46:24.127Z,2.2
2018-12-20T07:01:35.388Z,2.2
2018-12-20T07:16:40.773Z,2.2
2018-12-20T07:31:58.050Z,2.2
2018-12-20T07:47:09.413Z,2.2
2018-12-20T08:02:20.795Z,2.3
2018-12-20T08:17:32.316Z,2.5
2018-12-20T08:32:43.762Z,2.5
2018-12-20T08:47:55.295Z,2.6
2018-12-20T09:03:06.793Z,2.6
2018-12-20T09:18:18.267Z,2.6
2018-12-20T09:33:25.696Z,2.7
2018-12-20T09:48:41.449Z,2.8
2018-12-20T10:03:53.103Z,3
2018-12-20T10:19:04.838Z,3.1
2018-12-20T10:34:16.524Z,2.9
2018-12-20T10:49:27.948Z,3.1
2018-12-20T11:04:39.689Z,3.2
2018-12-20T11:19:51.707Z,3.8
2018-12-20T11:35:03.753Z,4
2018-12-20T11:50:15.067Z,3.9
2018-12-20T12:05:27.666Z,4
2018-12-20T12:20:39.678Z,4.1
2018-12-20T12:35:51.655Z,4.4
2018-12-20T12:50:58.198Z,4.3
2018-12-20T13:06:15.816Z,4.1
2018-12-20T13:21:27.713Z,4.2
2018-12-20T13:36:40.026Z,4.3
2018-12-20T13:51:52.223Z,4.9
2018-12-20T14:07:04.537Z,4.5
2018-12-20T14:22:16.927Z,4.2
2018-12-20T14:37:28.554Z,4.1
2018-12-20T14:52:40.614Z,3.9
2018-12-20T15:07:52.384Z,3.8
2018-12-20T15:23:04.581Z,3.8
2018-12-20T15:38:16.521Z,3.9
2018-12-20T15:53:28.238Z,4
2018-12-20T16:08:34.911Z,4.2
2018-12-20T16:23:52.762Z,5.1
2018-12-20T16:39:05.095Z,4.6
2018-12-20T16:54:17.408Z,4.3
2018-12-20T17:09:29.300Z,4.1
2018-12-20T17:24:41.222Z,4.1
2018-12-20T17:39:53.258Z,4.1
2018-12-20T17:55:05.220Z,4.1
2018-12-20T18:10:17.372Z,4.3
2018-12-20T18:25:26.173Z,4.4
2018-12-20T18:40:41.792Z,4.6
2018-12-20T18:55:53.731Z,4.7
2018-12-20T19:11:05.946Z,4.6
2018-12-20T19:26:09.015Z,4.7
2018-12-20T19:41:30.391Z,4.6
2018-12-20T19:56:42.440Z,4.7
2018-12-20T20:11:54.690Z,4.8
2018-12-20T20:27:22.539Z,5
2018-12-20T20:43:16.743Z,5.3
2018-12-20T20:58:29.558Z,6.5
2018-12-20T21:13:42.606Z,6.4
2018-12-20T21:28:55.485Z,6.4
2018-12-20T21:44:05.321Z,6.6
2018-12-20T21:59:25.015Z,6.6
2018-12-20T22:14:33.940Z,6.7
2018-12-20T22:23:07.499Z,6.8
2018-12-20T22:38:20.552Z,6.9
2018-12-20T22:53:33.543Z,7
2018-12-20T23:08:47.349Z,7
2018-12-20T23:23:59.066Z,7.4
2018-12-20T23:39:12.968Z,7.1
2018-12-20T23:54:25.940Z,7
